createdAt,value
2022-09-15T00:00:29.891Z,23.77
2022-09-15T00:02:57.068Z,17.13
2022-09-15T00:05:23.884Z,15.63
2022-09-15T00:07:50.647Z,19.40
2022-09-15T00:10:17.874Z,15.03
2022-09-15T00:12:49.510Z,15.17
2022-09-15T00:15:16.835Z,20.50
2022-09-15T00:17:49.677Z,16.20
2022-09-15T00:20:20.428Z,14.10
2022-09-15T00:22:48.128Z,18.97
2022-09-15T00:25:16.126Z,17.07
2022-09-15T00:27:42.762Z,23.33
2022-09-15T00:30:09.851Z,15.70
2022-09-15T00:32:36.506Z,19.83
2022-09-15T00:35:03.822Z,15.43
2022-09-15T00:37:30.542Z,21.50
2022-09-15T00:39:57.647Z,21.00
2022-09-15T00:42:24.458Z,21.00
2022-09-15T00:44:57.200Z,20.77
2022-09-15T00:47:30.957Z,18.97
2022-09-15T00:50:06.638Z,17.73
2022-09-15T00:52:42.521Z,17.77
2022-09-15T00:55:14.131Z,16.97
2022-09-15T00:57:55.567Z,20.07
2022-09-15T01:00:24.382Z,28.10
2022-09-15T01:02:51.288Z,18.37
2022-09-15T01:05:20.953Z,21.67
2022-09-15T01:08:09.824Z,20.60
2022-09-15T01:10:39.786Z,20.50
2022-09-15T01:13:11.965Z,20.43
2022-09-15T01:16:03.825Z,23.70
2022-09-15T01:18:37.629Z,21.87
2022-09-15T01:21:29.105Z,22.33
2022-09-15T01:24:16.905Z,23.40
2022-09-15T01:26:55.522Z,27.33
2022-09-15T01:29:56.165Z,25.37
2022-09-15T01:33:01.601Z,22.73
2022-09-15T01:35:52.239Z,22.43
2022-09-15T01:38:51.566Z,23.17
2022-09-15T01:41:33.242Z,26.73
2022-09-15T01:44:08.792Z,23.13
2022-09-15T01:46:40.640Z,19.73
2022-09-15T01:49:11.047Z,23.83
2022-09-15T01:51:40.919Z,24.47
2022-09-15T01:54:08.788Z,37.33
2022-09-15T01:56:38.751Z,29.23
2022-09-15T01:59:05.996Z,20.07
2022-09-15T02:01:42.117Z,21.23
2022-09-15T02:04:29.602Z,24.77
2022-09-15T02:07:02.886Z,26.37
2022-09-15T02:09:38.476Z,21.30
2022-09-15T02:12:12.245Z,23.10
2022-09-15T02:14:48.461Z,32.70
2022-09-15T02:17:19.534Z,22.10
2022-09-15T02:20:10.094Z,31.80
2022-09-15T02:22:40.964Z,19.63
2022-09-15T02:25:13.065Z,21.63
2022-09-15T02:27:46.809Z,30.63
2022-09-15T02:30:16.312Z,25.77
2022-09-15T02:32:50.910Z,29.27
2022-09-15T02:35:18.155Z,25.23
2022-09-15T02:37:46.508Z,25.67
2022-09-15T02:40:13.365Z,24.10
2022-09-15T02:42:40.228Z,25.17
2022-09-15T02:45:07.495Z,27.03
2022-09-15T02:47:34.897Z,27.13
2022-09-15T02:50:01.664Z,29.23
2022-09-15T02:52:28.282Z,26.07
2022-09-15T02:54:54.938Z,23.17
2022-09-15T02:57:21.622Z,24.63
2022-09-15T03:00:07.172Z,31.47
2022-09-15T03:02:34.483Z,25.30
2022-09-15T03:05:01.432Z,23.37
2022-09-15T03:07:28.509Z,25.70
2022-09-15T03:09:55.603Z,26.63
2022-09-15T03:12:22.394Z,28.13
2022-09-15T03:14:49.049Z,25.47
2022-09-15T03:17:16.580Z,26.70
2022-09-15T03:19:43.608Z,30.03
2022-09-15T03:22:10.608Z,28.30
2022-09-15T03:24:38.336Z,28.70
2022-09-15T03:27:05.409Z,24.80
2022-09-15T03:29:32.077Z,20.87
2022-09-15T03:31:58.804Z,23.37
2022-09-15T03:34:25.529Z,26.33
2022-09-15T03:36:52.141Z,22.27
2022-09-15T03:39:19.121Z,24.97
2022-09-15T03:41:46.129Z,26.03
2022-09-15T03:44:12.850Z,22.87
2022-09-15T03:46:39.480Z,26.10
2022-09-15T03:49:06.245Z,22.50
2022-09-15T03:51:32.887Z,22.63
2022-09-15T03:53:59.946Z,27.50
2022-09-15T03:56:31.233Z,31.10
2022-09-15T03:59:02.306Z,23.33
2022-09-15T04:01:30.397Z,23.10
2022-09-15T04:03:58.249Z,27.57
2022-09-15T04:06:26.169Z,29.80
2022-09-15T04:08:53.820Z,28.27
2022-09-15T04:11:22.573Z,30.03
2022-09-15T04:13:49.890Z,23.00
2022-09-15T04:16:22.020Z,30.90
2022-09-15T04:18:51.088Z,24.00
2022-09-15T04:21:20.867Z,27.30
2022-09-15T04:23:48.462Z,21.53
2022-09-15T04:26:33.680Z,27.00
2022-09-15T04:29:04.257Z,22.50
2022-09-15T04:31:32.851Z,22.37
2022-09-15T04:34:00.109Z,29.53
2022-09-15T04:36:28.570Z,23.37
2022-09-15T04:38:56.313Z,21.07
2022-09-15T04:41:23.710Z,25.43
2022-09-15T04:43:51.048Z,27.07
2022-09-15T04:46:18.519Z,20.43
2022-09-15T04:48:46.491Z,22.27
2022-09-15T04:51:16.835Z,22.03
2022-09-15T04:53:43.746Z,21.20
2022-09-15T04:56:17.390Z,20.60
2022-09-15T04:58:50.541Z,23.93
2022-09-15T05:01:24.597Z,21.90
2022-09-15T05:03:51.527Z,25.77
2022-09-15T05:06:27.022Z,17.87
2022-09-15T05:08:56.405Z,20.57
2022-09-15T05:11:24.702Z,20.30
2022-09-15T05:13:51.600Z,18.80
2022-09-15T05:16:24.389Z,17.13
2022-09-15T05:18:55.534Z,21.17
2022-09-15T05:21:23.617Z,19.33
2022-09-15T05:23:51.908Z,20.30
2022-09-15T05:26:25.294Z,20.50
2022-09-15T05:28:52.505Z,19.47
2022-09-15T05:31:22.210Z,22.57
2022-09-15T05:33:50.682Z,23.70
2022-09-15T05:36:18.537Z,16.90
2022-09-15T05:38:45.314Z,17.13
2022-09-15T05:41:18.486Z,18.30
2022-09-15T05:43:49.305Z,15.27
2022-09-15T05:46:18.286Z,22.07
2022-09-15T05:48:45.836Z,14.80
2022-09-15T05:51:13.672Z,17.77
2022-09-15T05:53:40.735Z,15.03
2022-09-15T05:56:14.150Z,15.30
2022-09-15T05:58:42.424Z,16.77
2022-09-15T06:01:13.336Z,18.50
2022-09-15T06:03:40.659Z,13.77
2022-09-15T06:06:07.823Z,17.40
2022-09-15T06:08:37.114Z,16.07
2022-09-15T06:11:12.236Z,19.57
2022-09-15T06:13:40.073Z,21.83
2022-09-15T06:16:09.771Z,20.00
2022-09-15T06:18:38.050Z,15.57
2022-09-15T06:21:11.886Z,12.13
2022-09-15T06:23:39.077Z,16.03
2022-09-15T06:26:14.362Z,10.13
2022-09-15T06:28:47.270Z,20.70
2022-09-15T06:31:14.548Z,16.13
2022-09-15T06:33:43.976Z,18.73
2022-09-15T06:36:14.920Z,13.27
2022-09-15T06:38:42.287Z,12.57
2022-09-15T06:41:10.068Z,16.13
2022-09-15T06:43:37.610Z,11.17
2022-09-15T06:46:09.948Z,15.67
2022-09-15T06:48:38.266Z,24.50
2022-09-15T06:51:06.494Z,12.37
2022-09-15T06:53:35.214Z,11.67
2022-09-15T06:56:12.977Z,13.17
2022-09-15T06:58:41.139Z,10.90
2022-09-15T07:01:10.716Z,11.87
2022-09-15T07:03:39.782Z,13.97
2022-09-15T07:06:07.959Z,17.23
2022-09-15T07:08:35.023Z,8.20
2022-09-15T07:11:01.792Z,10.20
2022-09-15T07:13:28.469Z,11.77
2022-09-15T07:16:00.180Z,7.90
2022-09-15T07:18:27.528Z,11.00
2022-09-15T07:21:04.280Z,9.43
2022-09-15T07:23:31.224Z,10.87
2022-09-15T07:26:12.742Z,5.37
2022-09-15T07:28:40.529Z,11.70
2022-09-15T07:31:08.857Z,7.20
2022-09-15T07:33:37.153Z,5.47
2022-09-15T07:36:08.295Z,10.77
2022-09-15T07:38:38.494Z,5.17
2022-09-15T07:41:10.783Z,6.60
2022-09-15T07:43:37.596Z,9.27
2022-09-15T07:46:05.362Z,6.60
2022-09-15T07:48:32.589Z,7.13
2022-09-15T07:50:59.958Z,11.00
2022-09-15T07:53:30.369Z,8.30
2022-09-15T07:55:57.761Z,5.77
2022-09-15T07:58:25.403Z,7.13
2022-09-15T08:00:52.328Z,9.90
2022-09-15T08:03:19.051Z,5.13
2022-09-15T08:05:46.218Z,15.07
2022-09-15T08:08:13.642Z,20.73
2022-09-15T08:10:41.405Z,17.23
2022-09-15T08:13:08.915Z,19.63
2022-09-15T08:15:37.395Z,18.50
2022-09-15T08:18:05.301Z,11.70
2022-09-15T08:20:32.582Z,16.83
2022-09-15T08:22:59.923Z,6.90
2022-09-15T08:25:27.229Z,5.73
2022-09-15T08:27:55.047Z,4.80
2022-09-15T08:30:22.219Z,4.47
2022-09-15T08:32:49.601Z,5.33
2022-09-15T08:35:17.330Z,12.17
2022-09-15T08:37:44.017Z,8.67
2022-09-15T08:40:19.355Z,9.50
2022-09-15T08:42:48.235Z,9.20
2022-09-15T08:45:25.642Z,12.00
2022-09-15T08:48:03.322Z,7.10
2022-09-15T08:50:35.793Z,6.10
2022-09-15T08:53:16.176Z,7.53
2022-09-15T08:55:56.315Z,6.37
2022-09-15T08:58:35.878Z,6.67
2022-09-15T09:01:11.650Z,8.40
2022-09-15T09:03:58.125Z,6.33
2022-09-15T09:06:43.013Z,7.13
2022-09-15T09:09:34.227Z,7.87
2022-09-15T09:12:20.520Z,8.10
2022-09-15T09:15:23.365Z,5.90
2022-09-15T09:18:05.185Z,6.60
2022-09-15T09:21:13.150Z,5.60
2022-09-15T09:23:52.692Z,10.53
2022-09-15T09:26:19.821Z,5.63
2022-09-15T09:28:55.721Z,5.23
2022-09-15T09:31:24.777Z,3.73
2022-09-15T09:34:36.981Z,9.23
2022-09-15T09:37:16.822Z,4.00
2022-09-15T09:39:44.179Z,4.37
2022-09-15T09:42:16.743Z,4.70
2022-09-15T09:44:47.017Z,4.00
2022-09-15T09:47:16.621Z,8.33
2022-09-15T09:49:49.470Z,4.43
2022-09-15T09:52:37.111Z,5.57
2022-09-15T09:55:20.470Z,7.70
2022-09-15T09:57:49.219Z,11.13
2022-09-15T10:00:37.321Z,8.67
2022-09-15T10:03:11.100Z,9.07
2022-09-15T10:05:38.026Z,6.90
2022-09-15T10:08:04.899Z,5.30
2022-09-15T10:10:32.375Z,5.53
2022-09-15T10:13:03.019Z,4.73
2022-09-15T10:15:32.213Z,1.90
2022-09-15T10:17:58.939Z,5.10
2022-09-15T10:20:32.688Z,8.73
2022-09-15T10:23:03.942Z,2.10
2022-09-15T10:25:55.514Z,3.53
2022-09-15T10:28:26.162Z,4.30
2022-09-15T10:31:13.584Z,3.17
2022-09-15T10:33:42.616Z,4.67
2022-09-15T10:36:16.223Z,5.53
2022-09-15T10:38:45.278Z,5.07
2022-09-15T10:41:18.011Z,6.57
2022-09-15T10:44:12.262Z,6.40
2022-09-15T10:47:22.143Z,4.53
2022-09-15T10:50:15.605Z,5.33
2022-09-15T10:53:02.901Z,2.20
2022-09-15T10:55:51.532Z,2.83
2022-09-15T10:58:39.878Z,3.10
2022-09-15T11:01:30.612Z,2.00
2022-09-15T11:04:25.348Z,1.60
2022-09-15T11:07:15.938Z,3.30
2022-09-15T11:10:03.833Z,2.63
2022-09-15T11:13:10.125Z,2.70
2022-09-15T11:15:55.960Z,2.80
2022-09-15T11:18:43.559Z,2.80
2022-09-15T11:21:29.190Z,5.37
2022-09-15T11:24:03.366Z,3.63
2022-09-15T11:26:36.846Z,4.87
2022-09-15T11:29:13.413Z,9.50
2022-09-15T11:31:44.992Z,7.40
2022-09-15T11:34:23.279Z,8.30
2022-09-15T11:36:59.432Z,5.60
2022-09-15T11:39:36.831Z,5.50
2022-09-15T11:42:41.383Z,6.53
2022-09-15T11:45:21.767Z,4.20
2022-09-15T11:47:55.315Z,4.93
2022-09-15T11:50:29.007Z,3.03
2022-09-15T11:53:04.388Z,4.53
2022-09-15T11:55:38.271Z,1.97
2022-09-15T11:58:22.280Z,3.90
2022-09-15T12:01:03.125Z,2.40
2022-09-15T12:03:43.033Z,4.20
2022-09-15T12:06:32.817Z,5.13
2022-09-15T12:09:01.011Z,4.00
2022-09-15T12:11:31.295Z,5.50
2022-09-15T12:13:59.738Z,6.27
2022-09-15T12:16:27.760Z,4.50
2022-09-15T12:19:17.132Z,2.37
2022-09-15T12:21:58.614Z,3.57
2022-09-15T12:24:53.508Z,3.23
2022-09-15T12:27:21.127Z,11.37
2022-09-15T12:29:49.584Z,7.93
2022-09-15T12:32:33.112Z,8.97
2022-09-15T12:35:18.200Z,4.10
2022-09-15T12:37:55.927Z,2.30
2022-09-15T12:40:39.989Z,2.43
2022-09-15T12:43:13.338Z,3.47
2022-09-15T12:45:43.010Z,2.23
2022-09-15T12:48:21.551Z,2.67
2022-09-15T12:51:07.369Z,6.43
2022-09-15T12:53:46.320Z,3.57
2022-09-15T12:56:24.345Z,1.83
2022-09-15T12:58:52.177Z,5.80
2022-09-15T13:01:19.330Z,3.50
2022-09-15T13:03:46.502Z,2.63
2022-09-15T13:06:22.410Z,4.03
2022-09-15T13:08:53.523Z,2.83
2022-09-15T13:11:38.083Z,5.47
2022-09-15T13:14:07.960Z,1.67
2022-09-15T13:16:41.032Z,4.77
2022-09-15T13:19:13.893Z,4.10
2022-09-15T13:21:45.634Z,1.83
2022-09-15T13:24:43.597Z,2.93
2022-09-15T13:27:11.877Z,2.90
2022-09-15T13:29:50.580Z,4.47
2022-09-15T13:32:29.598Z,3.37
2022-09-15T13:35:21.136Z,9.70
2022-09-15T13:38:32.156Z,4.23
2022-09-15T13:41:14.178Z,4.87
2022-09-15T13:44:09.996Z,3.57
2022-09-15T13:47:21.038Z,3.50
2022-09-15T13:50:10.815Z,5.43
2022-09-15T13:53:15.342Z,1.70
2022-09-15T13:55:43.907Z,2.90
2022-09-15T14:01:06.863Z,2.80
2022-09-15T14:03:39.486Z,1.60
2022-09-15T14:06:20.578Z,3.70
2022-09-15T14:08:51.783Z,3.10
2022-09-15T14:11:28.238Z,4.60
2022-09-15T14:13:56.623Z,3.00
2022-09-15T14:16:27.999Z,2.40
2022-09-15T14:18:57.714Z,4.77
2022-09-15T14:21:49.008Z,3.40
2022-09-15T14:24:21.822Z,5.27
2022-09-15T14:26:48.849Z,4.80
2022-09-15T14:29:20.657Z,2.40
2022-09-15T14:31:48.592Z,3.87
2022-09-15T14:34:20.648Z,3.20
2022-09-15T14:37:02.479Z,6.37
2022-09-15T14:39:29.164Z,5.00
2022-09-15T14:41:56.318Z,3.50
2022-09-15T14:47:28.333Z,4.80
2022-09-15T14:50:19.682Z,10.73
2022-09-15T14:53:17.028Z,4.47
2022-09-15T14:55:54.564Z,6.73
2022-09-15T14:58:32.427Z,6.50
2022-09-15T15:01:26.656Z,2.60
2022-09-15T15:04:10.400Z,7.63
2022-09-15T15:06:45.051Z,5.10
2022-09-15T15:09:21.329Z,3.87
2022-09-15T15:11:52.939Z,7.33
2022-09-15T15:14:20.093Z,7.23
2022-09-15T15:16:58.827Z,6.50
2022-09-15T15:19:41.210Z,6.50
2022-09-15T15:22:13.936Z,3.70
2022-09-15T15:24:49.871Z,4.80
2022-09-15T15:27:34.892Z,6.77
2022-09-15T15:30:30.582Z,11.57
2022-09-15T15:33:04.759Z,2.40
2022-09-15T15:35:33.296Z,2.77
2022-09-15T15:38:25.283Z,3.70
2022-09-15T15:41:04.297Z,1.50
2022-09-15T15:43:31.653Z,3.27
2022-09-15T15:46:01.231Z,3.53
2022-09-15T15:48:33.964Z,4.07
2022-09-15T15:51:05.013Z,3.97
2022-09-15T15:53:32.209Z,2.80
2022-09-15T15:56:00.143Z,6.20
2022-09-15T15:58:27.358Z,2.83
2022-09-15T16:00:56.649Z,9.30
2022-09-15T16:03:24.751Z,3.67
2022-09-15T16:05:59.299Z,4.10
2022-09-15T16:08:33.377Z,6.53
2022-09-15T16:11:02.163Z,2.73
2022-09-15T16:13:29.345Z,2.70
2022-09-15T16:15:58.111Z,2.43
2022-09-15T16:18:25.055Z,2.57
2022-09-15T16:20:52.379Z,3.57
2022-09-15T16:23:22.604Z,2.57
2022-09-15T16:25:59.612Z,3.03
2022-09-15T16:28:26.502Z,2.93
2022-09-15T16:30:53.176Z,4.80
2022-09-15T16:33:20.443Z,9.23
2022-09-15T16:35:55.215Z,6.37
2022-09-15T16:38:25.392Z,5.53
2022-09-15T16:40:52.430Z,4.03
2022-09-15T16:43:21.441Z,8.07
2022-09-15T16:45:49.986Z,2.63
2022-09-15T16:48:17.183Z,5.10
2022-09-15T16:50:56.012Z,2.10
2022-09-15T16:53:32.579Z,5.13
2022-09-15T16:55:59.414Z,2.40
2022-09-15T16:58:26.300Z,5.17
2022-09-15T17:00:53.545Z,6.60
2022-09-15T17:03:22.803Z,2.90
2022-09-15T17:06:00.302Z,3.77
2022-09-15T17:08:29.517Z,2.20
2022-09-15T17:10:57.692Z,2.60
2022-09-15T17:13:29.324Z,6.27
2022-09-15T17:15:57.972Z,4.23
2022-09-15T17:18:25.093Z,4.17
2022-09-15T17:20:52.099Z,3.50
2022-09-15T17:23:38.207Z,7.43
2022-09-15T17:26:10.516Z,4.20
2022-09-15T17:28:37.765Z,5.73
2022-09-15T17:31:11.634Z,5.23
2022-09-15T17:33:38.350Z,2.83
2022-09-15T17:36:05.296Z,4.00
2022-09-15T17:38:32.764Z,2.97
2022-09-15T17:40:59.412Z,2.13
2022-09-15T17:43:29.008Z,4.50
2022-09-15T17:45:56.375Z,2.10
2022-09-15T17:48:23.816Z,4.60
2022-09-15T17:50:51.198Z,2.30
2022-09-15T17:53:23.423Z,2.07
2022-09-15T17:55:50.976Z,3.43
2022-09-15T17:58:18.260Z,2.67
2022-09-15T18:00:45.655Z,3.50
2022-09-15T18:03:35.118Z,2.67
2022-09-15T18:06:05.388Z,3.70
2022-09-15T18:08:33.110Z,5.67
2022-09-15T18:11:00.848Z,9.63
2022-09-15T18:13:29.616Z,2.17
2022-09-15T18:15:57.804Z,4.07
2022-09-15T18:18:28.232Z,4.63
2022-09-15T18:20:57.795Z,4.10
2022-09-15T18:23:26.681Z,4.63
2022-09-15T18:25:53.427Z,7.57
2022-09-15T18:28:20.807Z,11.50
2022-09-15T18:30:49.043Z,7.77
2022-09-15T18:33:21.872Z,3.73
2022-09-15T18:35:51.200Z,2.97
2022-09-15T18:38:18.865Z,5.07
2022-09-15T18:40:51.481Z,3.53
2022-09-15T18:43:18.147Z,3.77
2022-09-15T18:45:45.307Z,3.93
2022-09-15T18:48:13.321Z,7.10
2022-09-15T18:50:41.162Z,2.70
2022-09-15T18:53:07.841Z,8.57
2022-09-15T18:55:34.997Z,10.30
2022-09-15T18:58:02.333Z,2.90
2022-09-15T19:00:29.378Z,4.83
2022-09-15T19:03:00.931Z,5.80
2022-09-15T19:05:28.670Z,2.63
2022-09-15T19:07:56.025Z,3.10
2022-09-15T19:10:24.334Z,2.20
2022-09-15T19:12:51.301Z,5.77
2022-09-15T19:15:18.205Z,2.70
2022-09-15T19:17:45.476Z,3.00
2022-09-15T19:20:14.952Z,4.30
2022-09-15T19:22:42.351Z,2.37
2022-09-15T19:25:10.835Z,10.30
2022-09-15T19:27:38.618Z,3.20
2022-09-15T19:30:06.519Z,2.67
2022-09-15T19:32:33.666Z,9.77
2022-09-15T19:35:00.399Z,4.33
2022-09-15T19:37:27.246Z,4.30
2022-09-15T19:39:54.651Z,10.90
2022-09-15T19:42:21.419Z,7.83
2022-09-15T19:44:49.553Z,2.43
2022-09-15T19:47:16.637Z,3.90
2022-09-15T19:49:44.480Z,4.70
2022-09-15T19:52:11.250Z,2.50
2022-09-15T19:54:38.441Z,5.30
2022-09-15T19:57:05.309Z,3.30
2022-09-15T19:59:32.261Z,3.23
2022-09-15T20:02:00.592Z,3.73
2022-09-15T20:04:28.252Z,8.77
2022-09-15T20:06:55.081Z,3.93
2022-09-15T20:09:21.840Z,3.20
2022-09-15T20:11:48.641Z,4.60
2022-09-15T20:14:16.051Z,6.93
2022-09-15T20:16:43.204Z,5.50
2022-09-15T20:19:10.094Z,3.93
2022-09-15T20:21:49.785Z,2.53
2022-09-15T20:24:18.176Z,1.43
2022-09-15T20:26:45.116Z,1.93
2022-09-15T20:29:12.394Z,4.03
2022-09-15T20:31:39.315Z,2.07
2022-09-15T20:34:05.998Z,2.60
2022-09-15T20:36:36.124Z,2.13
2022-09-15T20:39:07.737Z,2.10
2022-09-15T20:41:34.372Z,2.73
2022-09-15T20:44:01.283Z,4.80
2022-09-15T20:46:31.338Z,2.13
2022-09-15T20:48:58.131Z,4.70
2022-09-15T20:51:27.780Z,4.47
2022-09-15T20:53:57.299Z,3.23
2022-09-15T20:56:27.255Z,1.57
2022-09-15T20:58:59.216Z,1.30
2022-09-15T21:01:36.629Z,2.70
2022-09-15T21:04:04.546Z,1.80
2022-09-15T21:06:32.389Z,1.50
2022-09-15T21:08:59.193Z,1.50
2022-09-15T21:11:27.687Z,3.00
2022-09-15T21:13:55.482Z,4.73
2022-09-15T21:16:25.312Z,3.47
2022-09-15T21:18:52.746Z,1.50
2022-09-15T21:21:24.365Z,6.20
2022-09-15T21:24:01.448Z,2.00
2022-09-15T21:26:56.801Z,2.50
2022-09-15T21:29:23.907Z,1.50
2022-09-15T21:31:50.859Z,2.20
2022-09-15T21:34:17.598Z,5.10
2022-09-15T21:36:44.486Z,3.77
2022-09-15T21:39:11.235Z,4.23
2022-09-15T21:41:38.182Z,3.87
2022-09-15T21:44:05.303Z,10.23
2022-09-15T21:46:31.954Z,5.43
2022-09-15T21:48:59.946Z,2.93
2022-09-15T21:51:29.010Z,1.60
2022-09-15T21:53:57.513Z,1.83
2022-09-15T21:56:25.093Z,2.37
2022-09-15T21:58:51.854Z,2.97
2022-09-15T22:01:29.016Z,1.50
2022-09-15T22:03:57.102Z,1.70
2022-09-15T22:06:27.639Z,3.57
2022-09-15T22:08:55.298Z,7.00
2022-09-15T22:11:22.565Z,5.73
2022-09-15T22:13:49.256Z,1.43
2022-09-15T22:16:18.898Z,3.20
2022-09-15T22:18:46.461Z,1.43
2022-09-15T22:21:18.888Z,1.40
2022-09-15T22:23:47.126Z,2.70
2022-09-15T22:26:17.749Z,1.43
2022-09-15T22:28:44.622Z,5.73
2022-09-15T22:31:13.565Z,4.70
2022-09-15T22:33:41.216Z,3.33
2022-09-15T22:36:29.755Z,2.53
2022-09-15T22:39:03.897Z,3.07
2022-09-15T22:41:32.612Z,3.87
2022-09-15T22:43:59.378Z,2.93
2022-09-15T22:46:26.196Z,1.70
2022-09-15T22:48:53.188Z,2.93
2022-09-15T22:51:19.949Z,1.93
2022-09-15T22:53:47.153Z,4.77
2022-09-15T22:56:23.070Z,1.80
2022-09-15T22:58:49.963Z,6.40
2022-09-15T23:01:19.774Z,3.00
2022-09-15T23:03:57.801Z,1.70
2022-09-15T23:06:26.418Z,2.87
2022-09-15T23:08:58.965Z,7.43
2022-09-15T23:11:28.045Z,2.53
2022-09-15T23:13:55.359Z,6.87
2022-09-15T23:16:24.089Z,2.57
2022-09-15T23:18:51.224Z,3.30
2022-09-15T23:21:18.029Z,2.53
2022-09-15T23:23:47.594Z,2.70
2022-09-15T23:26:16.705Z,2.27
2022-09-15T23:28:43.373Z,1.93
2022-09-15T23:31:13.749Z,5.27
2022-09-15T23:33:40.899Z,1.70
2022-09-15T23:36:13.776Z,3.93
2022-09-15T23:38:43.297Z,4.93
2022-09-15T23:41:11.184Z,4.83
2022-09-15T23:43:37.946Z,2.23
2022-09-15T23:46:04.934Z,6.10
2022-09-15T23:48:32.404Z,2.70
2022-09-15T23:51:00.603Z,1.63
2022-09-15T23:53:27.615Z,1.57
2022-09-15T23:55:54.294Z,4.30
2022-09-15T23:58:20.988Z,2.20
